createdAt,value
2018-11-23T00:00:15.994Z,100751.58
2018-11-23T00:02:45.782Z,100753.71
2018-11-23T00:05:14.350Z,100753.30
2018-11-23T00:07:43.352Z,100754.58
2018-11-23T00:10:13.941Z,100751.58
2018-11-23T00:12:42.899Z,100755.91
2018-11-23T00:15:16.423Z,100752.88
2018-11-23T00:17:45.036Z,100758.09
2018-11-23T00:20:24.601Z,100761.56
2018-11-23T00:22:53.251Z,100756.36
2018-11-23T00:25:23.385Z,100754.60
2018-11-23T00:27:52.363Z,100756.78
2018-11-23T00:30:22.141Z,100761.10
2018-11-23T00:32:51.266Z,100762.84
2018-11-23T00:35:21.678Z,100763.30
2018-11-23T00:37:51.124Z,100765.02
2018-11-23T00:40:21.922Z,100760.71
2018-11-23T00:42:51.098Z,100759.84
2018-11-23T00:45:19.856Z,100758.55
2018-11-23T00:47:50.154Z,100761.14
2018-11-23T00:50:19.891Z,100761.18
2018-11-23T00:52:48.836Z,100762.03
2018-11-23T00:55:18.718Z,100760.73
2018-11-23T00:57:47.362Z,100762.92
2018-11-23T01:00:19.727Z,100753.38
2018-11-23T01:02:48.424Z,100761.18
2018-11-23T01:05:18.946Z,100753.41
2018-11-23T01:07:48.999Z,100753.42
2018-11-23T01:10:18.995Z,100748.23
2018-11-23T01:12:48.862Z,100746.94
2018-11-23T01:15:23.103Z,100744.78
2018-11-23T01:17:51.774Z,100740.02
2018-11-23T01:20:27.433Z,100737.87
2018-11-23T01:22:56.853Z,100733.54
2018-11-23T01:25:26.413Z,100735.27
2018-11-23T01:27:55.677Z,100731.36
2018-11-23T01:30:26.680Z,100733.13
2018-11-23T01:32:55.158Z,100732.66
2018-11-23T01:35:23.774Z,100725.75
2018-11-23T01:37:53.519Z,100725.75
2018-11-23T01:40:23.432Z,100727.08
2018-11-23T01:42:52.643Z,100730.11
2018-11-23T01:45:21.238Z,100722.33
2018-11-23T01:47:50.786Z,100717.15
2018-11-23T01:50:23.848Z,100718.03
2018-11-23T01:52:52.788Z,100715.86
2018-11-23T01:55:22.259Z,100719.34
2018-11-23T01:57:50.863Z,100711.48
2018-11-23T02:00:21.829Z,100715.44
2018-11-23T02:02:51.187Z,100721.05
2018-11-23T02:05:19.856Z,100721.50
2018-11-23T02:07:48.546Z,100726.73
2018-11-23T02:10:17.856Z,100724.56
2018-11-23T02:12:46.454Z,100726.33
2018-11-23T02:15:17.087Z,100729.39
2018-11-23T02:17:46.086Z,100731.16
2018-11-23T02:20:15.920Z,100725.10
2018-11-23T02:22:46.305Z,100724.27
2018-11-23T02:25:15.071Z,100726.02
2018-11-23T02:27:43.600Z,100722.11
2018-11-23T02:30:16.662Z,100722.12
2018-11-23T02:32:45.434Z,100715.16
2018-11-23T02:35:14.798Z,100714.31
2018-11-23T02:37:43.410Z,100723.47
2018-11-23T02:40:13.099Z,100720.44
2018-11-23T02:42:42.140Z,100729.11
2018-11-23T02:45:13.227Z,100726.09
2018-11-23T02:47:42.684Z,100728.28
2018-11-23T02:50:11.295Z,100723.09
2018-11-23T02:52:40.622Z,100726.56
2018-11-23T02:55:10.405Z,100724.81
2018-11-23T02:57:39.745Z,100715.27
2018-11-23T03:00:11.755Z,100717.45
2018-11-23T03:02:40.530Z,100714.40
2018-11-23T03:05:10.896Z,100709.19
2018-11-23T03:07:39.663Z,100701.33
2018-11-23T03:10:09.477Z,100711.35
2018-11-23T03:12:38.542Z,100704.41
2018-11-23T03:15:09.842Z,100707.89
2018-11-23T03:17:38.558Z,100713.09
2018-11-23T03:20:09.468Z,100707.87
2018-11-23T03:23:41.327Z,100707.87
2018-11-23T03:26:09.948Z,100698.34
2018-11-23T03:28:38.498Z,100697.48
2018-11-23T03:31:12.188Z,100697.48
2018-11-23T03:33:35.719Z,100700.52
2018-11-23T03:36:05.584Z,100699.20
2018-11-23T03:38:34.289Z,100702.23
2018-11-23T03:41:02.954Z,100692.69
2018-11-23T03:43:31.535Z,100690.94
2018-11-23T03:46:00.122Z,100693.98
2018-11-23T03:48:28.744Z,100692.23
2018-11-23T03:50:57.246Z,100692.66
2018-11-23T03:53:25.869Z,100690.50
2018-11-23T03:55:54.527Z,100692.23
2018-11-23T03:58:23.194Z,100696.15
2018-11-23T04:00:51.857Z,100694.84
2018-11-23T04:03:20.782Z,100694.84
2018-11-23T04:05:49.456Z,100683.54
2018-11-23T04:08:18.010Z,100690.95
2018-11-23T04:10:48.811Z,100683.58
2018-11-23T04:13:17.953Z,100689.64
2018-11-23T04:15:46.575Z,100682.72
2018-11-23T04:18:15.271Z,100696.17
2018-11-23T04:21:15.659Z,100690.53
2018-11-23T04:23:44.252Z,100684.00
2018-11-23T04:26:12.964Z,100691.41
2018-11-23T04:28:41.477Z,100686.20
2018-11-23T04:31:10.175Z,100689.66
2018-11-23T04:33:38.741Z,100685.33
2018-11-23T04:36:07.450Z,100684.46
2018-11-23T04:38:36.195Z,100687.06
2018-11-23T04:41:04.974Z,100676.21
2018-11-23T04:43:33.588Z,100683.59
2018-11-23T04:46:02.211Z,100688.80
2018-11-23T04:48:30.843Z,100687.51
2018-11-23T04:50:59.594Z,100685.33
2018-11-23T04:53:28.160Z,100695.77
2018-11-23T04:55:56.964Z,100694.05
2018-11-23T04:58:25.541Z,100688.84
2018-11-23T05:00:55.106Z,100692.75
2018-11-23T05:03:23.701Z,100695.80
2018-11-23T05:05:53.247Z,100697.54
2018-11-23T05:08:21.893Z,100698.86
2018-11-23T05:10:50.443Z,100704.07
2018-11-23T05:13:19.115Z,100701.91
2018-11-23T05:15:47.679Z,100700.17
2018-11-23T05:18:16.413Z,100700.17
2018-11-23T05:20:45.386Z,100692.36
2018-11-23T05:23:13.899Z,100706.70
2018-11-23T05:25:42.663Z,100706.69
2018-11-23T05:28:11.501Z,100701.92
2018-11-23T05:30:39.983Z,100704.53
2018-11-23T05:33:08.525Z,100696.27
2018-11-23T05:35:37.055Z,100702.78
2018-11-23T05:38:05.718Z,100700.17
2018-11-23T05:40:34.343Z,100703.20
2018-11-23T05:43:04.442Z,100704.95
2018-11-23T05:45:32.236Z,100706.27
2018-11-23T05:48:01.003Z,100699.73
2018-11-23T05:50:29.559Z,100699.30
2018-11-23T05:52:59.722Z,100703.64
2018-11-23T05:55:29.319Z,100701.90
2018-11-23T05:57:57.953Z,100698.86
2018-11-23T06:00:28.043Z,100702.34
2018-11-23T06:02:56.782Z,100707.99
2018-11-23T06:05:26.401Z,100707.14
2018-11-23T06:07:55.008Z,100693.67
2018-11-23T06:10:23.758Z,100701.49
2018-11-23T06:12:52.540Z,100714.11
2018-11-23T06:15:23.479Z,100708.48
2018-11-23T06:17:52.272Z,100715.00
2018-11-23T06:20:23.467Z,100717.16
2018-11-23T06:22:52.828Z,100719.34
2018-11-23T06:25:37.221Z,100722.38
2018-11-23T06:28:06.234Z,100726.73
2018-11-23T06:30:34.771Z,100723.25
2018-11-23T06:33:15.185Z,100727.62
2018-11-23T06:35:43.776Z,100723.71
2018-11-23T06:38:12.458Z,100723.71
2018-11-23T06:40:40.935Z,100726.30
2018-11-23T06:43:09.446Z,100721.53
2018-11-23T06:45:41.052Z,100720.23
2018-11-23T06:48:10.643Z,100722.86
2018-11-23T06:50:39.801Z,100722.00
2018-11-23T06:53:08.563Z,100722.88
2018-11-23T06:55:37.206Z,100725.06
2018-11-23T06:58:06.195Z,100727.67
2018-11-23T07:00:35.047Z,100728.13
2018-11-23T07:03:03.646Z,100726.41
2018-11-23T07:05:32.385Z,100728.55
2018-11-23T07:08:01.061Z,100731.63
2018-11-23T07:10:30.046Z,100732.49
2018-11-23T07:12:58.694Z,100732.06
2018-11-23T07:15:27.282Z,100726.85
2018-11-23T07:17:55.827Z,100731.20
2018-11-23T07:20:24.492Z,100729.90
2018-11-23T07:22:53.095Z,100732.96
2018-11-23T07:25:21.809Z,100738.63
2018-11-23T07:27:50.688Z,100732.55
2018-11-23T07:30:27.139Z,100739.48
2018-11-23T07:32:56.030Z,100739.06
2018-11-23T07:35:24.829Z,100737.75
2018-11-23T07:37:53.543Z,100733.44
2018-11-23T07:40:36.110Z,100728.23
2018-11-23T07:43:05.745Z,100734.34
2018-11-23T07:45:34.427Z,100740.41
2018-11-23T07:48:03.135Z,100733.91
2018-11-23T07:50:31.843Z,100735.23
2018-11-23T07:53:00.784Z,100733.50
2018-11-23T07:55:29.487Z,100742.66
2018-11-23T07:57:58.124Z,100745.25
2018-11-23T08:00:27.596Z,100742.64
2018-11-23T08:02:56.296Z,100745.27
2018-11-23T08:05:25.295Z,100752.67
2018-11-23T08:07:53.943Z,100755.30
2018-11-23T08:10:21.615Z,100760.95
2018-11-23T08:12:50.971Z,100750.96
2018-11-23T08:15:21.953Z,100751.41
2018-11-23T08:17:50.736Z,100750.98
2018-11-23T08:20:20.738Z,100749.67
2018-11-23T08:22:49.351Z,100747.51
2018-11-23T08:25:19.242Z,100745.78
2018-11-23T08:27:48.891Z,100739.70
2018-11-23T08:30:22.279Z,100748.38
2018-11-23T08:32:50.805Z,100747.51
2018-11-23T08:35:19.366Z,100743.61
2018-11-23T08:37:48.028Z,100761.44
2018-11-23T08:40:19.891Z,100757.96
2018-11-23T08:42:49.318Z,100749.25
2018-11-23T08:45:19.640Z,100751.87
2018-11-23T08:47:48.459Z,100747.95
2018-11-23T08:50:20.458Z,100749.72
2018-11-23T08:52:49.971Z,100749.25
2018-11-23T08:55:19.153Z,100748.41
2018-11-23T08:57:47.778Z,100750.99
2018-11-23T09:00:19.034Z,100742.30
2018-11-23T09:02:48.798Z,100740.55
2018-11-23T09:05:17.970Z,100738.37
2018-11-23T09:07:47.615Z,100727.06
2018-11-23T09:10:18.134Z,100732.28
2018-11-23T09:12:49.432Z,100728.37
2018-11-23T09:15:18.275Z,100720.53
2018-11-23T09:17:47.129Z,100710.92
2018-11-23T09:20:17.476Z,100711.36
2018-11-23T09:22:46.110Z,100714.84
2018-11-23T09:25:16.167Z,100715.27
2018-11-23T09:27:45.008Z,100706.53
2018-11-23T09:30:16.860Z,100710.02
2018-11-23T09:32:46.134Z,100708.27
2018-11-23T09:35:14.930Z,100706.91
2018-11-23T09:37:44.521Z,100709.52
2018-11-23T09:40:15.339Z,100705.59
2018-11-23T09:42:44.053Z,100708.59
2018-11-23T09:45:15.491Z,100699.87
2018-11-23T09:47:44.981Z,100700.25
2018-11-23T09:50:15.257Z,100698.06
2018-11-23T09:52:44.536Z,100694.98
2018-11-23T09:55:13.236Z,100699.34
2018-11-23T09:57:41.989Z,100697.15
2018-11-23T10:00:14.110Z,100687.52
2018-11-23T10:02:43.124Z,100688.83
2018-11-23T10:05:12.700Z,100685.34
2018-11-23T10:07:41.946Z,100685.38
2018-11-23T10:10:11.762Z,100685.81
2018-11-23T10:12:40.638Z,100683.58
2018-11-23T10:15:10.879Z,100682.70
2018-11-23T10:17:39.516Z,100682.72
2018-11-23T10:20:10.384Z,100674.87
2018-11-23T10:22:39.133Z,100673.99
2018-11-23T10:25:09.426Z,100674.41
2018-11-23T10:27:38.487Z,100677.45
2018-11-23T10:30:09.437Z,100672.20
2018-11-23T10:32:38.043Z,100673.94
2018-11-23T10:35:08.321Z,100676.08
2018-11-23T10:37:37.394Z,100668.72
2018-11-23T10:40:08.740Z,100662.60
2018-11-23T10:42:37.372Z,100666.02
2018-11-23T10:45:08.879Z,100663.84
2018-11-23T10:47:37.703Z,100654.69
2018-11-23T10:50:10.729Z,100652.06
2018-11-23T10:52:39.592Z,100642.46
2018-11-23T10:55:11.648Z,100643.25
2018-11-23T10:57:40.447Z,100645.83
2018-11-23T11:00:16.571Z,100646.27
2018-11-23T11:02:46.643Z,100644.97
2018-11-23T11:05:20.625Z,100643.68
2018-11-23T11:07:49.290Z,100638.02
2018-11-23T11:10:18.034Z,100631.02
2018-11-23T11:12:46.775Z,100631.84
2018-11-23T11:15:15.883Z,100634.78
2018-11-23T11:17:44.421Z,100622.02
2018-11-23T11:20:13.187Z,100623.73
2018-11-23T11:22:41.684Z,100624.09
2018-11-23T11:25:11.286Z,100620.48
2018-11-23T11:27:40.407Z,100618.70
2018-11-23T11:30:11.675Z,100615.57
2018-11-23T11:32:40.487Z,100613.37
2018-11-23T11:35:10.098Z,100608.55
2018-11-23T11:37:38.936Z,100606.70
2018-11-23T11:40:09.590Z,100602.64
2018-11-23T11:42:39.449Z,100607.30
2018-11-23T11:45:10.082Z,100597.15
2018-11-23T11:47:38.816Z,100594.35
2018-11-23T11:50:09.387Z,100595.39
2018-11-23T11:52:39.600Z,100586.19
2018-11-23T11:55:10.164Z,100578.45
2018-11-23T11:57:38.715Z,100579.02
2018-11-23T12:00:09.790Z,100569.03
2018-11-23T12:02:38.339Z,100576.34
2018-11-23T12:05:08.218Z,100576.63
2018-11-23T12:07:36.761Z,100564.09
2018-11-23T12:10:07.174Z,100571.66
2018-11-23T12:12:35.729Z,100567.78
2018-11-23T12:15:04.387Z,100563.05
2018-11-23T12:17:33.785Z,100565.78
2018-11-23T12:20:02.380Z,100560.05
2018-11-23T12:22:31.061Z,100553.05
2018-11-23T12:24:59.703Z,100552.94
2018-11-23T12:27:29.506Z,100545.02
2018-11-23T12:29:57.510Z,100541.30
2018-11-23T12:32:27.275Z,100533.69
2018-11-23T12:34:55.824Z,100536.03
2018-11-23T12:37:25.030Z,100533.95
2018-11-23T12:39:53.452Z,100530.65
2018-11-23T12:42:22.265Z,100531.75
2018-11-23T12:44:50.827Z,100539.70
2018-11-23T12:47:19.771Z,100529.55
2018-11-23T12:49:48.365Z,100523.97
2018-11-23T12:52:17.088Z,100528.82
2018-11-23T12:54:45.734Z,100532.75
2018-11-23T12:57:14.419Z,100531.68
2018-11-23T12:59:43.003Z,100529.89
2018-11-23T13:02:11.729Z,100521.71
2018-11-23T13:04:40.412Z,100518.78
2018-11-23T13:07:09.191Z,100521.44
2018-11-23T13:09:39.987Z,100515.03
2018-11-23T13:12:09.605Z,100502.38
2018-11-23T13:14:38.056Z,100516.88
2018-11-23T13:17:07.490Z,100511.08
2018-11-23T13:19:36.181Z,100511.44
2018-11-23T13:22:04.815Z,100510.92
2018-11-23T13:24:33.431Z,100508.48
2018-11-23T13:27:02.074Z,100524.30
2018-11-23T13:29:30.916Z,100511.91
2018-11-23T13:32:00.223Z,100511.34
2018-11-23T13:34:28.280Z,100510.36
2018-11-23T13:36:56.905Z,100508.27
2018-11-23T13:39:25.526Z,100509.50
2018-11-23T13:41:54.228Z,100512.41
2018-11-23T13:44:22.735Z,100510.81
2018-11-23T13:46:51.528Z,100508.40
2018-11-23T13:49:20.168Z,100510.24
2018-11-23T13:51:48.690Z,100503.56
2018-11-23T13:54:17.903Z,100501.02
2018-11-23T13:56:46.712Z,100505.44
2018-11-23T13:59:16.232Z,100502.81
2018-11-23T14:01:45.408Z,100495.23
2018-11-23T14:04:14.404Z,100487.98
2018-11-23T14:06:43.015Z,100503.03
2018-11-23T14:09:12.332Z,100496.17
2018-11-23T14:11:42.098Z,100499.30
2018-11-23T14:14:11.509Z,100498.48
2018-11-23T14:16:40.194Z,100498.59
2018-11-23T14:19:08.850Z,100493.01
2018-11-23T14:21:37.772Z,100494.84
2018-11-23T14:24:06.768Z,100496.28
2018-11-23T14:26:35.769Z,100497.70
2018-11-23T14:29:06.190Z,100503.02
2018-11-23T14:31:36.662Z,100497.44
2018-11-23T14:34:05.802Z,100501.02
2018-11-23T14:36:35.507Z,100497.56
2018-11-23T14:39:05.937Z,100494.09
2018-11-23T14:41:34.584Z,100493.23
2018-11-23T14:44:07.001Z,100497.63
2018-11-23T14:46:32.732Z,100497.20
2018-11-23T14:49:01.359Z,100494.13
2018-11-23T14:51:29.924Z,100496.79
2018-11-23T14:53:58.564Z,100493.80
2018-11-23T14:56:27.331Z,100492.08
2018-11-23T14:58:55.909Z,100498.25
2018-11-23T15:01:25.154Z,100497.86
2018-11-23T15:03:53.870Z,100494.08
2018-11-23T15:06:22.591Z,100491.14
2018-11-23T15:08:51.120Z,100497.76
2018-11-23T15:11:20.099Z,100492.11
2018-11-23T15:13:48.811Z,100488.63
2018-11-23T15:16:17.562Z,100481.20
2018-11-23T15:18:46.551Z,100473.31
2018-11-23T15:21:15.244Z,100471.53
2018-11-23T15:23:43.780Z,100472.83
2018-11-23T15:26:12.314Z,100465.35
2018-11-23T15:28:40.840Z,100456.14
2018-11-23T15:31:09.424Z,100453.51
2018-11-23T15:33:40.093Z,100453.08
2018-11-23T15:36:09.679Z,100453.95
2018-11-23T15:38:38.367Z,100453.95
2018-11-23T15:41:06.969Z,100445.67
2018-11-23T15:43:35.681Z,100448.68
2018-11-23T15:46:04.371Z,100441.67
2018-11-23T15:48:33.040Z,100438.59
2018-11-23T15:51:06.871Z,100445.59
2018-11-23T15:53:35.851Z,100442.56
2018-11-23T15:56:04.706Z,100443.41
2018-11-23T15:58:33.401Z,100444.73
2018-11-23T16:01:02.160Z,100446.11
2018-11-23T16:03:30.956Z,100440.53
2018-11-23T16:05:59.535Z,100447.12
2018-11-23T16:08:28.159Z,100445.86
2018-11-23T16:10:56.697Z,100436.30
2018-11-23T16:13:25.377Z,100434.56
2018-11-23T16:15:54.011Z,100438.06
2018-11-23T16:18:22.508Z,100437.67
2018-11-23T16:20:51.002Z,100428.09
2018-11-23T16:23:21.091Z,100424.66
2018-11-23T16:25:50.371Z,100424.27
2018-11-23T16:28:19.089Z,100415.66
2018-11-23T16:30:49.169Z,100418.86
2018-11-23T16:33:19.430Z,100426.36
2018-11-23T16:35:48.853Z,100424.28
2018-11-23T16:38:18.992Z,100433.08
2018-11-23T16:40:49.421Z,100419.67
2018-11-23T16:43:18.147Z,100422.33
2018-11-23T16:45:47.407Z,100415.81
2018-11-23T16:48:18.390Z,100414.55
2018-11-23T16:50:49.017Z,100414.98
2018-11-23T16:53:18.537Z,100414.51
2018-11-23T16:55:47.368Z,100419.72
2018-11-23T16:58:16.316Z,100426.20
2018-11-23T17:00:46.404Z,100420.94
2018-11-23T17:03:17.715Z,100425.21
2018-11-23T17:05:48.138Z,100417.74
2018-11-23T17:08:18.394Z,100425.08
2018-11-23T17:10:47.070Z,100423.30
2018-11-23T17:13:16.451Z,100423.70
2018-11-23T17:15:45.023Z,100427.52
2018-11-23T17:18:13.751Z,100417.46
2018-11-23T17:20:42.785Z,100418.27
2018-11-23T17:23:12.479Z,100417.31
2018-11-23T17:25:41.019Z,100412.92
2018-11-23T17:28:10.894Z,100404.16
2018-11-23T17:30:39.728Z,100410.67
2018-11-23T17:33:08.702Z,100404.97
2018-11-23T17:35:37.586Z,100387.06
2018-11-23T17:38:06.593Z,100387.88
2018-11-23T17:40:37.010Z,100383.05
2018-11-23T17:43:06.045Z,100383.48
2018-11-23T17:45:36.000Z,100379.56
2018-11-23T17:48:04.692Z,100375.17
2018-11-23T17:50:34.831Z,100373.44
2018-11-23T17:53:03.484Z,100376.04
2018-11-23T17:55:32.317Z,100382.56
2018-11-23T17:58:01.717Z,100391.70
2018-11-23T18:00:38.532Z,100398.67
2018-11-23T18:03:01.826Z,100389.86
2018-11-23T18:05:32.126Z,100389.41
2018-11-23T18:08:01.470Z,100389.38
2018-11-23T18:10:31.419Z,100395.03
2018-11-23T18:13:00.708Z,100386.27
2018-11-23T18:15:31.265Z,100388.88
2018-11-23T18:18:00.922Z,100389.30
2018-11-23T18:20:30.344Z,100385.37
2018-11-23T18:22:59.680Z,100372.27
2018-11-23T18:25:37.196Z,100369.66
2018-11-23T18:28:06.392Z,100362.70
2018-11-23T18:30:35.553Z,100366.17
2018-11-23T18:33:06.637Z,100363.55
2018-11-23T18:35:35.477Z,100359.22
2018-11-23T18:38:04.085Z,100358.33
2018-11-23T18:40:37.302Z,100352.23
2018-11-23T18:43:01.927Z,100346.13
2018-11-23T18:45:30.816Z,100342.63
2018-11-23T18:48:00.465Z,100350.05
2018-11-23T18:50:29.163Z,100337.84
2018-11-23T18:52:58.050Z,100334.80
2018-11-23T18:55:26.672Z,100331.31
2018-11-23T18:57:55.306Z,100330.45
2018-11-23T19:00:23.995Z,100333.07
2018-11-23T19:02:52.682Z,100333.07
2018-11-23T19:05:23.197Z,100338.75
2018-11-23T19:07:51.876Z,100334.82
2018-11-23T19:10:20.636Z,100333.95
2018-11-23T19:12:49.262Z,100333.51
2018-11-23T19:15:25.355Z,100337.45
2018-11-23T19:17:47.659Z,100336.15
2018-11-23T19:20:20.019Z,100337.44
2018-11-23T19:22:49.977Z,100339.17
2018-11-23T19:25:18.694Z,100343.55
2018-11-23T19:27:47.350Z,100333.95
2018-11-23T19:30:18.345Z,100342.67
2018-11-23T19:32:47.272Z,100347.03
2018-11-23T19:35:16.065Z,100346.16
2018-11-23T19:37:44.589Z,100343.97
2018-11-23T19:40:17.091Z,100345.73
2018-11-23T19:42:47.970Z,100340.50
2018-11-23T19:45:17.672Z,100333.95
2018-11-23T19:47:46.367Z,100333.51
2018-11-23T19:50:18.138Z,100326.08
2018-11-23T19:52:48.007Z,100318.66
2018-11-23T19:55:18.006Z,100323.44
2018-11-23T19:57:47.254Z,100319.09
2018-11-23T20:00:19.766Z,100313.84
2018-11-23T20:02:48.554Z,100308.58
2018-11-23T20:05:17.474Z,100295.48
2018-11-23T20:07:47.182Z,100289.78
2018-11-23T20:10:18.893Z,100288.89
2018-11-23T20:12:48.553Z,100282.77
2018-11-23T20:15:18.616Z,100279.73
2018-11-23T20:17:47.682Z,100273.65
2018-11-23T20:20:17.116Z,100279.31
2018-11-23T20:22:47.061Z,100271.52
2018-11-23T20:25:18.515Z,100263.66
2018-11-23T20:27:47.961Z,100263.20
2018-11-23T20:30:18.715Z,100260.58
2018-11-23T20:32:47.602Z,100259.73
2018-11-23T20:35:18.302Z,100251.89
2018-11-23T20:37:47.293Z,100252.74
2018-11-23T20:40:17.127Z,100244.04
2018-11-23T20:42:46.126Z,100243.16
2018-11-23T20:45:14.895Z,100240.13
2018-11-23T20:47:43.441Z,100239.29
2018-11-23T20:50:13.309Z,100242.34
2018-11-23T20:52:42.673Z,100231.95
2018-11-23T20:55:14.574Z,100235.03
2018-11-23T20:57:43.327Z,100246.80
2018-11-23T21:00:17.910Z,100238.08
2018-11-23T21:02:47.788Z,100241.58
2018-11-23T21:05:17.914Z,100241.58
2018-11-23T21:07:46.471Z,100235.88
2018-11-23T21:10:20.255Z,100233.24
2018-11-23T21:12:46.875Z,100235.80
2018-11-23T21:15:29.393Z,100236.67
2018-11-23T21:17:59.506Z,100234.03
2018-11-23T21:20:28.286Z,100232.72
2018-11-23T21:22:56.907Z,100233.14
2018-11-23T21:25:25.391Z,100229.64
2018-11-23T21:27:54.153Z,100235.72
2018-11-23T21:30:23.919Z,100233.13
2018-11-23T21:32:53.740Z,100229.59
2018-11-23T21:35:23.628Z,100229.59
2018-11-23T21:37:52.313Z,100223.05
2018-11-23T21:40:21.103Z,100227.40
2018-11-23T21:42:49.854Z,100224.36
2018-11-23T21:45:19.904Z,100219.13
2018-11-23T21:47:48.592Z,100221.73
2018-11-23T21:50:25.484Z,100216.04
2018-11-23T21:52:51.537Z,100214.73
2018-11-23T21:55:21.738Z,100215.15
2018-11-23T21:57:50.436Z,100209.91
2018-11-23T22:00:19.055Z,100209.06
2018-11-23T22:02:48.008Z,100199.91
2018-11-23T22:05:16.773Z,100190.31
2018-11-23T22:07:45.553Z,100195.98
2018-11-23T22:10:17.367Z,100193.75
2018-11-23T22:12:47.217Z,100187.63
2018-11-23T22:15:30.822Z,100185.87
2018-11-23T22:17:59.599Z,100181.95
2018-11-23T22:20:28.206Z,100177.11
2018-11-23T22:22:56.834Z,100177.97
2018-11-23T22:25:25.442Z,100180.59
2018-11-23T22:27:54.148Z,100171.37
2018-11-23T22:30:24.355Z,100171.37
2018-11-23T22:32:52.965Z,100167.44
2018-11-23T22:35:21.780Z,100166.55
2018-11-23T22:37:50.441Z,100158.70
2018-11-23T22:40:20.094Z,100149.97
2018-11-23T22:42:49.817Z,100143.93
2018-11-23T22:45:18.623Z,100143.93
2018-11-23T22:47:47.197Z,100139.92
2018-11-23T22:50:17.367Z,100141.65
2018-11-23T22:52:47.719Z,100139.03
2018-11-23T22:55:16.336Z,100133.74
2018-11-23T22:57:44.968Z,100138.09
2018-11-23T23:00:26.403Z,100134.58
2018-11-23T23:02:55.248Z,100131.96
2018-11-23T23:05:24.511Z,100121.06
2018-11-23T23:07:53.061Z,100110.17
2018-11-23T23:10:21.670Z,100102.75
2018-11-23T23:12:50.884Z,100103.20
2018-11-23T23:15:19.728Z,100106.69
2018-11-23T23:17:48.273Z,100087.48
2018-11-23T23:20:21.172Z,100086.65
2018-11-23T23:22:51.746Z,100085.36
2018-11-23T23:25:20.259Z,100082.30
2018-11-23T23:27:48.881Z,100076.64
2018-11-23T23:30:18.466Z,100078.40
2018-11-23T23:32:48.034Z,100077.95
2018-11-23T23:35:17.369Z,100078.38
2018-11-23T23:37:46.236Z,100075.75
2018-11-23T23:40:17.668Z,100068.77
2018-11-23T23:42:46.920Z,100056.11
2018-11-23T23:45:16.943Z,100069.66
2018-11-23T23:47:45.640Z,100067.45
2018-11-23T23:50:16.835Z,100069.62
2018-11-23T23:52:45.619Z,100074.84
2018-11-23T23:55:14.598Z,100068.31
2018-11-23T23:57:44.465Z,100073.97
